sensor_id;sensor_type;location;lat;lon;timestamp;P1;durP1;ratioP1;P2;durP2;ratioP2
9214;SDS011;4642;51.364;6.788;2024-01-15T00:00:49;43.43;;;22.77;;
9214;SDS011;4642;51.364;6.788;2024-01-15T00:03:14;49.00;;;22.37;;
9214;SDS011;4642;51.364;6.788;2024-01-15T00:05:40;41.70;;;22.90;;
9214;SDS011;4642;51.364;6.788;2024-01-15T00:08:05;38.07;;;21.53;;
9214;SDS011;4642;51.364;6.788;2024-01-15T00:10:31;40.70;;;21.77;;
9214;SDS011;4642;51.364;6.788;2024-01-15T00:12:56;40.43;;;21.97;;
9214;SDS011;4642;51.364;6.788;2024-01-15T00:15:22;39.73;;;20.80;;
9214;SDS011;4642;51.364;6.788;2024-01-15T00:17:47;38.57;;;22.03;;
9214;SDS011;4642;51.364;6.788;2024-01-15T00:20:13;38.53;;;21.47;;
9214;SDS011;4642;51.364;6.788;2024-01-15T00:22:38;39.70;;;21.63;;
9214;SDS011;4642;51.364;6.788;2024-01-15T00:25:04;43.50;;;22.57;;
9214;SDS011;4642;51.364;6.788;2024-01-15T00:27:30;41.17;;;21.23;;
9214;SDS011;4642;51.364;6.788;2024-01-15T00:29:55;38.63;;;21.40;;
9214;SDS011;4642;51.364;6.788;2024-01-15T00:32:21;38.13;;;21.23;;
9214;SDS011;4642;51.364;6.788;2024-01-15T00:34:46;45.03;;;23.37;;
9214;SDS011;4642;51.364;6.788;2024-01-15T00:37:12;40.30;;;21.53;;
9214;SDS011;4642;51.364;6.788;2024-01-15T00:39:38;39.50;;;20.80;;
9214;SDS011;4642;51.364;6.788;2024-01-15T00:42:03;39.73;;;21.77;;
9214;SDS011;4642;51.364;6.788;2024-01-15T00:44:29;37.53;;;20.50;;
9214;SDS011;4642;51.364;6.788;2024-01-15T00:46:54;35.47;;;20.93;;
9214;SDS011;4642;51.364;6.788;2024-01-15T00:49:20;37.07;;;21.33;;
9214;SDS011;4642;51.364;6.788;2024-01-15T00:51:46;33.73;;;19.27;;
9214;SDS011;4642;51.364;6.788;2024-01-15T00:54:12;35.13;;;21.47;;
9214;SDS011;4642;51.364;6.788;2024-01-15T00:56:37;38.73;;;21.50;;
9214;SDS011;4642;51.364;6.788;2024-01-15T00:59:03;35.90;;;21.27;;
9214;SDS011;4642;51.364;6.788;2024-01-15T01:01:29;33.70;;;19.60;;
9214;SDS011;4642;51.364;6.788;2024-01-15T01:03:54;38.73;;;21.10;;
9214;SDS011;4642;51.364;6.788;2024-01-15T01:06:20;34.40;;;19.43;;
9214;SDS011;4642;51.364;6.788;2024-01-15T01:08:45;34.27;;;20.83;;
9214;SDS011;4642;51.364;6.788;2024-01-15T01:11:14;37.60;;;20.77;;
9214;SDS011;4642;51.364;6.788;2024-01-15T01:13:40;38.57;;;22.27;;
9214;SDS011;4642;51.364;6.788;2024-01-15T01:16:06;34.57;;;20.80;;
9214;SDS011;4642;51.364;6.788;2024-01-15T01:18:31;35.33;;;20.50;;
9214;SDS011;4642;51.364;6.788;2024-01-15T01:20:57;31.43;;;19.00;;
9214;SDS011;4642;51.364;6.788;2024-01-15T01:23:23;34.77;;;21.43;;
9214;SDS011;4642;51.364;6.788;2024-01-15T01:25:48;34.60;;;21.07;;
9214;SDS011;4642;51.364;6.788;2024-01-15T01:28:13;36.70;;;19.93;;
9214;SDS011;4642;51.364;6.788;2024-01-15T01:30:39;35.40;;;20.63;;
9214;SDS011;4642;51.364;6.788;2024-01-15T01:33:05;33.73;;;20.13;;
9214;SDS011;4642;51.364;6.788;2024-01-15T01:35:30;33.77;;;20.57;;
9214;SDS011;4642;51.364;6.788;2024-01-15T01:37:56;39.10;;;21.40;;
9214;SDS011;4642;51.364;6.788;2024-01-15T01:40:21;37.53;;;21.63;;
9214;SDS011;4642;51.364;6.788;2024-01-15T01:42:47;36.70;;;20.33;;
9214;SDS011;4642;51.364;6.788;2024-01-15T01:45:14;36.73;;;20.20;;
9214;SDS011;4642;51.364;6.788;2024-01-15T01:47:40;34.67;;;19.87;;
9214;SDS011;4642;51.364;6.788;2024-01-15T01:50:06;32.90;;;19.27;;
9214;SDS011;4642;51.364;6.788;2024-01-15T01:52:32;34.00;;;18.77;;
9214;SDS011;4642;51.364;6.788;2024-01-15T01:54:58;34.50;;;18.93;;
9214;SDS011;4642;51.364;6.788;2024-01-15T01:57:26;36.60;;;19.80;;
9214;SDS011;4642;51.364;6.788;2024-01-15T01:59:53;33.97;;;18.93;;
9214;SDS011;4642;51.364;6.788;2024-01-15T02:02:19;33.47;;;18.93;;
9214;SDS011;4642;51.364;6.788;2024-01-15T02:04:46;34.10;;;18.43;;
9214;SDS011;4642;51.364;6.788;2024-01-15T02:07:13;32.27;;;17.30;;
9214;SDS011;4642;51.364;6.788;2024-01-15T02:09:38;30.67;;;17.40;;
9214;SDS011;4642;51.364;6.788;2024-01-15T02:12:04;34.63;;;18.27;;
9214;SDS011;4642;51.364;6.788;2024-01-15T02:14:30;29.20;;;18.33;;
9214;SDS011;4642;51.364;6.788;2024-01-15T02:16:56;28.30;;;16.23;;
9214;SDS011;4642;51.364;6.788;2024-01-15T02:19:21;31.60;;;17.90;;
9214;SDS011;4642;51.364;6.788;2024-01-15T02:21:47;33.23;;;16.57;;
9214;SDS011;4642;51.364;6.788;2024-01-15T02:24:12;31.77;;;17.07;;
9214;SDS011;4642;51.364;6.788;2024-01-15T02:26:38;31.00;;;16.70;;
9214;SDS011;4642;51.364;6.788;2024-01-15T02:29:04;27.70;;;16.43;;
9214;SDS011;4642;51.364;6.788;2024-01-15T02:31:31;29.43;;;15.77;;
9214;SDS011;4642;51.364;6.788;2024-01-15T02:33:57;28.67;;;15.30;;
9214;SDS011;4642;51.364;6.788;2024-01-15T02:36:22;29.40;;;15.70;;
9214;SDS011;4642;51.364;6.788;2024-01-15T02:38:48;26.80;;;15.53;;
9214;SDS011;4642;51.364;6.788;2024-01-15T02:41:13;23.63;;;13.93;;
9214;SDS011;4642;51.364;6.788;2024-01-15T02:43:39;26.10;;;14.90;;
9214;SDS011;4642;51.364;6.788;2024-01-15T02:46:06;23.60;;;13.60;;
9214;SDS011;4642;51.364;6.788;2024-01-15T02:48:31;24.60;;;13.13;;
9214;SDS011;4642;51.364;6.788;2024-01-15T02:50:58;21.67;;;13.00;;
9214;SDS011;4642;51.364;6.788;2024-01-15T02:53:23;23.00;;;12.83;;
9214;SDS011;4642;51.364;6.788;2024-01-15T02:55:49;24.67;;;11.60;;
9214;SDS011;4642;51.364;6.788;2024-01-15T02:58:14;21.13;;;12.13;;
9214;SDS011;4642;51.364;6.788;2024-01-15T03:00:40;29.30;;;13.43;;
9214;SDS011;4642;51.364;6.788;2024-01-15T03:03:05;19.77;;;11.57;;
9214;SDS011;4642;51.364;6.788;2024-01-15T03:05:31;18.53;;;11.33;;
9214;SDS011;4642;51.364;6.788;2024-01-15T03:07:56;20.67;;;11.83;;
9214;SDS011;4642;51.364;6.788;2024-01-15T03:10:22;20.43;;;11.57;;
9214;SDS011;4642;51.364;6.788;2024-01-15T03:12:47;22.13;;;11.73;;
9214;SDS011;4642;51.364;6.788;2024-01-15T03:15:13;21.20;;;12.30;;
9214;SDS011;4642;51.364;6.788;2024-01-15T03:17:38;19.40;;;11.73;;
9214;SDS011;4642;51.364;6.788;2024-01-15T03:20:06;24.43;;;12.67;;
9214;SDS011;4642;51.364;6.788;2024-01-15T03:22:32;18.40;;;12.47;;
9214;SDS011;4642;51.364;6.788;2024-01-15T03:24:57;21.37;;;12.90;;
9214;SDS011;4642;51.364;6.788;2024-01-15T03:27:23;24.17;;;13.77;;
9214;SDS011;4642;51.364;6.788;2024-01-15T03:29:48;23.00;;;13.10;;
9214;SDS011;4642;51.364;6.788;2024-01-15T03:32:14;21.97;;;14.20;;
9214;SDS011;4642;51.364;6.788;2024-01-15T03:34:41;24.23;;;14.30;;
9214;SDS011;4642;51.364;6.788;2024-01-15T03:37:06;22.50;;;14.70;;
9214;SDS011;4642;51.364;6.788;2024-01-15T03:39:32;20.43;;;13.57;;
9214;SDS011;4642;51.364;6.788;2024-01-15T03:41:57;24.20;;;14.80;;
9214;SDS011;4642;51.364;6.788;2024-01-15T03:44:23;23.90;;;14.90;;
9214;SDS011;4642;51.364;6.788;2024-01-15T03:46:48;24.67;;;14.50;;
9214;SDS011;4642;51.364;6.788;2024-01-15T03:49:14;23.20;;;14.70;;
9214;SDS011;4642;51.364;6.788;2024-01-15T03:51:39;24.13;;;13.87;;
9214;SDS011;4642;51.364;6.788;2024-01-15T03:54:05;21.97;;;13.60;;
9214;SDS011;4642;51.364;6.788;2024-01-15T03:56:31;24.47;;;14.30;;
9214;SDS011;4642;51.364;6.788;2024-01-15T03:58:57;23.57;;;15.17;;
9214;SDS011;4642;51.364;6.788;2024-01-15T04:01:22;21.20;;;13.70;;
9214;SDS011;4642;51.364;6.788;2024-01-15T04:03:48;26.57;;;14.57;;
9214;SDS011;4642;51.364;6.788;2024-01-15T04:06:13;21.73;;;13.70;;
9214;SDS011;4642;51.364;6.788;2024-01-15T04:08:39;22.93;;;12.83;;
9214;SDS011;4642;51.364;6.788;2024-01-15T04:11:04;22.57;;;12.77;;
9214;SDS011;4642;51.364;6.788;2024-01-15T04:13:32;21.53;;;13.63;;
9214;SDS011;4642;51.364;6.788;2024-01-15T04:15:57;24.57;;;13.30;;
9214;SDS011;4642;51.364;6.788;2024-01-15T04:18:23;19.27;;;13.33;;
9214;SDS011;4642;51.364;6.788;2024-01-15T04:20:48;20.53;;;12.50;;
9214;SDS011;4642;51.364;6.788;2024-01-15T04:23:14;21.90;;;13.23;;
9214;SDS011;4642;51.364;6.788;2024-01-15T04:25:40;24.10;;;14.60;;
9214;SDS011;4642;51.364;6.788;2024-01-15T04:28:07;21.30;;;14.17;;
9214;SDS011;4642;51.364;6.788;2024-01-15T04:30:33;18.43;;;12.00;;
9214;SDS011;4642;51.364;6.788;2024-01-15T04:32:59;15.53;;;12.27;;
9214;SDS011;4642;51.364;6.788;2024-01-15T04:35:24;18.23;;;12.47;;
9214;SDS011;4642;51.364;6.788;2024-01-15T04:37:50;22.80;;;12.93;;
9214;SDS011;4642;51.364;6.788;2024-01-15T04:40:15;27.67;;;13.27;;
9214;SDS011;4642;51.364;6.788;2024-01-15T04:42:41;23.23;;;13.77;;
9214;SDS011;4642;51.364;6.788;2024-01-15T04:45:07;21.67;;;13.83;;
9214;SDS011;4642;51.364;6.788;2024-01-15T04:47:32;20.73;;;13.60;;
9214;SDS011;4642;51.364;6.788;2024-01-15T04:49:58;18.13;;;12.10;;
9214;SDS011;4642;51.364;6.788;2024-01-15T04:52:24;19.43;;;12.77;;
9214;SDS011;4642;51.364;6.788;2024-01-15T04:54:49;18.10;;;12.30;;
9214;SDS011;4642;51.364;6.788;2024-01-15T04:57:15;21.07;;;12.13;;
9214;SDS011;4642;51.364;6.788;2024-01-15T04:59:40;20.50;;;11.33;;
9214;SDS011;4642;51.364;6.788;2024-01-15T05:02:06;17.37;;;10.80;;
9214;SDS011;4642;51.364;6.788;2024-01-15T05:04:32;21.10;;;10.70;;
9214;SDS011;4642;51.364;6.788;2024-01-15T05:06:58;17.53;;;11.03;;
9214;SDS011;4642;51.364;6.788;2024-01-15T05:09:23;17.70;;;10.57;;
9214;SDS011;4642;51.364;6.788;2024-01-15T05:11:49;20.27;;;10.27;;
9214;SDS011;4642;51.364;6.788;2024-01-15T05:14:14;17.77;;;9.13;;
9214;SDS011;4642;51.364;6.788;2024-01-15T05:16:40;18.53;;;10.23;;
9214;SDS011;4642;51.364;6.788;2024-01-15T05:19:11;19.40;;;10.70;;
9214;SDS011;4642;51.364;6.788;2024-01-15T05:21:37;21.77;;;11.00;;
9214;SDS011;4642;51.364;6.788;2024-01-15T05:24:03;20.00;;;9.87;;
9214;SDS011;4642;51.364;6.788;2024-01-15T05:26:28;17.83;;;10.30;;
9214;SDS011;4642;51.364;6.788;2024-01-15T05:28:54;16.20;;;10.23;;
9214;SDS011;4642;51.364;6.788;2024-01-15T05:31:19;15.13;;;10.30;;
9214;SDS011;4642;51.364;6.788;2024-01-15T05:33:45;16.40;;;10.80;;
9214;SDS011;4642;51.364;6.788;2024-01-15T05:36:10;16.33;;;10.00;;
9214;SDS011;4642;51.364;6.788;2024-01-15T05:38:36;19.10;;;10.80;;
9214;SDS011;4642;51.364;6.788;2024-01-15T05:41:01;17.63;;;10.60;;
9214;SDS011;4642;51.364;6.788;2024-01-15T05:43:27;19.93;;;11.20;;
9214;SDS011;4642;51.364;6.788;2024-01-15T05:45:52;16.13;;;10.87;;
9214;SDS011;4642;51.364;6.788;2024-01-15T05:48:18;18.27;;;10.60;;
9214;SDS011;4642;51.364;6.788;2024-01-15T05:50:43;15.93;;;10.87;;
9214;SDS011;4642;51.364;6.788;2024-01-15T05:53:09;14.23;;;10.40;;
9214;SDS011;4642;51.364;6.788;2024-01-15T05:55:36;19.77;;;9.67;;
9214;SDS011;4642;51.364;6.788;2024-01-15T05:58:03;18.10;;;9.43;;
9214;SDS011;4642;51.364;6.788;2024-01-15T06:00:28;17.40;;;8.70;;
9214;SDS011;4642;51.364;6.788;2024-01-15T06:02:54;14.87;;;9.23;;
9214;SDS011;4642;51.364;6.788;2024-01-15T06:05:19;14.53;;;8.60;;
9214;SDS011;4642;51.364;6.788;2024-01-15T06:07:45;15.60;;;8.17;;
9214;SDS011;4642;51.364;6.788;2024-01-15T06:10:10;14.47;;;7.10;;
9214;SDS011;4642;51.364;6.788;2024-01-15T06:12:36;14.90;;;7.47;;
9214;SDS011;4642;51.364;6.788;2024-01-15T06:15:01;16.47;;;7.73;;
9214;SDS011;4642;51.364;6.788;2024-01-15T06:17:27;11.00;;;7.20;;
9214;SDS011;4642;51.364;6.788;2024-01-15T06:19:53;16.63;;;7.87;;
9214;SDS011;4642;51.364;6.788;2024-01-15T06:22:18;17.33;;;7.87;;
9214;SDS011;4642;51.364;6.788;2024-01-15T06:24:44;12.20;;;7.30;;
9214;SDS011;4642;51.364;6.788;2024-01-15T06:27:09;14.37;;;7.43;;
9214;SDS011;4642;51.364;6.788;2024-01-15T06:29:36;13.43;;;7.57;;
9214;SDS011;4642;51.364;6.788;2024-01-15T06:32:03;13.93;;;7.40;;
9214;SDS011;4642;51.364;6.788;2024-01-15T06:34:29;10.87;;;6.50;;
9214;SDS011;4642;51.364;6.788;2024-01-15T06:36:54;11.90;;;6.53;;
9214;SDS011;4642;51.364;6.788;2024-01-15T06:39:20;12.47;;;6.30;;
9214;SDS011;4642;51.364;6.788;2024-01-15T06:41:46;11.27;;;6.37;;
9214;SDS011;4642;51.364;6.788;2024-01-15T06:44:12;13.13;;;6.73;;
9214;SDS011;4642;51.364;6.788;2024-01-15T06:46:44;7.90;;;5.37;;
9214;SDS011;4642;51.364;6.788;2024-01-15T06:49:10;9.17;;;5.13;;
9214;SDS011;4642;51.364;6.788;2024-01-15T06:51:36;8.00;;;5.67;;
9214;SDS011;4642;51.364;6.788;2024-01-15T06:54:02;8.70;;;4.70;;
9214;SDS011;4642;51.364;6.788;2024-01-15T06:56:27;6.37;;;4.30;;
9214;SDS011;4642;51.364;6.788;2024-01-15T06:58:53;8.37;;;4.63;;
9214;SDS011;4642;51.364;6.788;2024-01-15T07:01:18;8.57;;;4.77;;
9214;SDS011;4642;51.364;6.788;2024-01-15T07:03:44;5.20;;;3.77;;
9214;SDS011;4642;51.364;6.788;2024-01-15T07:06:10;10.33;;;4.43;;
9214;SDS011;4642;51.364;6.788;2024-01-15T07:08:36;9.03;;;3.77;;
9214;SDS011;4642;51.364;6.788;2024-01-15T07:11:05;5.93;;;4.03;;
9214;SDS011;4642;51.364;6.788;2024-01-15T07:13:31;9.47;;;3.83;;
9214;SDS011;4642;51.364;6.788;2024-01-15T07:15:56;5.73;;;4.00;;
9214;SDS011;4642;51.364;6.788;2024-01-15T07:18:22;8.87;;;3.47;;
9214;SDS011;4642;51.364;6.788;2024-01-15T07:20:48;6.77;;;4.60;;
9214;SDS011;4642;51.364;6.788;2024-01-15T07:23:14;8.70;;;5.63;;
9214;SDS011;4642;51.364;6.788;2024-01-15T07:25:39;9.37;;;5.60;;
9214;SDS011;4642;51.364;6.788;2024-01-15T07:28:05;7.13;;;6.00;;
9214;SDS011;4642;51.364;6.788;2024-01-15T07:30:30;8.93;;;6.47;;
9214;SDS011;4642;51.364;6.788;2024-01-15T07:32:56;9.73;;;7.40;;
9214;SDS011;4642;51.364;6.788;2024-01-15T07:35:21;14.90;;;8.80;;
9214;SDS011;4642;51.364;6.788;2024-01-15T07:37:47;14.70;;;9.67;;
9214;SDS011;4642;51.364;6.788;2024-01-15T07:40:12;14.37;;;9.33;;
9214;SDS011;4642;51.364;6.788;2024-01-15T07:42:38;12.90;;;10.23;;
9214;SDS011;4642;51.364;6.788;2024-01-15T07:45:04;17.53;;;11.17;;
9214;SDS011;4642;51.364;6.788;2024-01-15T07:47:30;17.87;;;11.63;;
9214;SDS011;4642;51.364;6.788;2024-01-15T07:49:55;18.77;;;11.40;;
9214;SDS011;4642;51.364;6.788;2024-01-15T07:52:21;14.30;;;10.60;;
9214;SDS011;4642;51.364;6.788;2024-01-15T07:54:47;15.30;;;10.13;;
9214;SDS011;4642;51.364;6.788;2024-01-15T07:57:12;13.77;;;10.37;;
9214;SDS011;4642;51.364;6.788;2024-01-15T07:59:38;17.90;;;11.13;;
9214;SDS011;4642;51.364;6.788;2024-01-15T08:02:05;11.67;;;9.57;;
9214;SDS011;4642;51.364;6.788;2024-01-15T08:04:30;13.80;;;10.47;;
9214;SDS011;4642;51.364;6.788;2024-01-15T08:06:56;14.40;;;9.73;;
9214;SDS011;4642;51.364;6.788;2024-01-15T08:09:22;13.43;;;9.80;;
9214;SDS011;4642;51.364;6.788;2024-01-15T08:11:47;14.47;;;9.60;;
9214;SDS011;4642;51.364;6.788;2024-01-15T08:14:14;12.57;;;9.67;;
9214;SDS011;4642;51.364;6.788;2024-01-15T08:16:40;17.10;;;9.63;;
9214;SDS011;4642;51.364;6.788;2024-01-15T08:19:05;14.13;;;9.63;;
9214;SDS011;4642;51.364;6.788;2024-01-15T08:21:31;11.60;;;9.10;;
9214;SDS011;4642;51.364;6.788;2024-01-15T08:24:00;12.37;;;8.70;;
9214;SDS011;4642;51.364;6.788;2024-01-15T08:26:27;12.60;;;8.73;;
9214;SDS011;4642;51.364;6.788;2024-01-15T08:28:53;12.07;;;8.00;;
9214;SDS011;4642;51.364;6.788;2024-01-15T08:31:19;10.43;;;7.93;;
9214;SDS011;4642;51.364;6.788;2024-01-15T08:33:44;11.97;;;7.90;;
9214;SDS011;4642;51.364;6.788;2024-01-15T08:36:10;9.30;;;7.37;;
9214;SDS011;4642;51.364;6.788;2024-01-15T08:38:35;10.43;;;8.20;;
9214;SDS011;4642;51.364;6.788;2024-01-15T08:41:01;14.27;;;7.97;;
9214;SDS011;4642;51.364;6.788;2024-01-15T08:43:27;8.63;;;6.43;;
9214;SDS011;4642;51.364;6.788;2024-01-15T08:45:52;7.00;;;6.30;;
9214;SDS011;4642;51.364;6.788;2024-01-15T08:48:18;7.53;;;6.37;;
9214;SDS011;4642;51.364;6.788;2024-01-15T08:50:44;11.10;;;6.83;;
9214;SDS011;4642;51.364;6.788;2024-01-15T08:53:11;9.97;;;7.67;;
9214;SDS011;4642;51.364;6.788;2024-01-15T08:55:36;7.53;;;6.03;;
9214;SDS011;4642;51.364;6.788;2024-01-15T08:58:02;10.23;;;7.10;;
9214;SDS011;4642;51.364;6.788;2024-01-15T09:00:28;7.03;;;6.33;;
9214;SDS011;4642;51.364;6.788;2024-01-15T09:02:53;9.07;;;7.10;;
9214;SDS011;4642;51.364;6.788;2024-01-15T09:05:19;8.97;;;6.60;;
9214;SDS011;4642;51.364;6.788;2024-01-15T09:07:44;8.53;;;7.10;;
9214;SDS011;4642;51.364;6.788;2024-01-15T09:10:11;13.37;;;8.10;;
9214;SDS011;4642;51.364;6.788;2024-01-15T09:12:36;7.40;;;5.90;;
9214;SDS011;4642;51.364;6.788;2024-01-15T09:15:02;7.03;;;6.03;;
9214;SDS011;4642;51.364;6.788;2024-01-15T09:17:29;7.87;;;6.10;;
9214;SDS011;4642;51.364;6.788;2024-01-15T09:19:55;6.93;;;4.73;;
9214;SDS011;4642;51.364;6.788;2024-01-15T09:22:20;7.57;;;5.07;;
9214;SDS011;4642;51.364;6.788;2024-01-15T09:24:46;5.47;;;4.90;;
9214;SDS011;4642;51.364;6.788;2024-01-15T09:27:11;5.10;;;4.57;;
9214;SDS011;4642;51.364;6.788;2024-01-15T09:29:37;5.90;;;4.87;;
9214;SDS011;4642;51.364;6.788;2024-01-15T09:32:05;8.43;;;6.30;;
9214;SDS011;4642;51.364;6.788;2024-01-15T09:34:33;7.17;;;5.70;;
9214;SDS011;4642;51.364;6.788;2024-01-15T09:36:59;8.37;;;5.47;;
9214;SDS011;4642;51.364;6.788;2024-01-15T09:39:25;7.27;;;5.27;;
9214;SDS011;4642;51.364;6.788;2024-01-15T09:41:51;5.87;;;5.27;;
9214;SDS011;4642;51.364;6.788;2024-01-15T09:44:17;6.77;;;4.73;;
9214;SDS011;4642;51.364;6.788;2024-01-15T09:46:44;5.63;;;4.47;;
9214;SDS011;4642;51.364;6.788;2024-01-15T09:49:11;7.83;;;5.33;;
9214;SDS011;4642;51.364;6.788;2024-01-15T09:51:37;7.33;;;6.10;;
9214;SDS011;4642;51.364;6.788;2024-01-15T09:54:03;7.20;;;5.97;;
9214;SDS011;4642;51.364;6.788;2024-01-15T09:56:30;7.93;;;6.63;;
9214;SDS011;4642;51.364;6.788;2024-01-15T09:58:56;10.50;;;6.80;;
9214;SDS011;4642;51.364;6.788;2024-01-15T10:01:23;8.57;;;6.67;;
9214;SDS011;4642;51.364;6.788;2024-01-15T10:03:49;8.70;;;6.90;;
9214;SDS011;4642;51.364;6.788;2024-01-15T10:06:15;16.37;;;11.73;;
9214;SDS011;4642;51.364;6.788;2024-01-15T10:08:49;8.00;;;6.60;;
9214;SDS011;4642;51.364;6.788;2024-01-15T10:11:15;10.27;;;6.10;;
9214;SDS011;4642;51.364;6.788;2024-01-15T10:13:44;8.87;;;6.90;;
9214;SDS011;4642;51.364;6.788;2024-01-15T10:16:10;7.50;;;5.90;;
9214;SDS011;4642;51.364;6.788;2024-01-15T10:18:36;7.50;;;6.23;;
9214;SDS011;4642;51.364;6.788;2024-01-15T10:21:08;5.97;;;5.37;;
9214;SDS011;4642;51.364;6.788;2024-01-15T10:23:33;5.97;;;4.80;;
9214;SDS011;4642;51.364;6.788;2024-01-15T10:25:59;5.40;;;4.90;;
9214;SDS011;4642;51.364;6.788;2024-01-15T10:28:26;7.10;;;5.90;;
9214;SDS011;4642;51.364;6.788;2024-01-15T10:30:56;6.03;;;4.77;;
9214;SDS011;4642;51.364;6.788;2024-01-15T10:33:25;7.07;;;5.00;;
9214;SDS011;4642;51.364;6.788;2024-01-15T10:35:54;5.27;;;4.50;;
9214;SDS011;4642;51.364;6.788;2024-01-15T10:38:24;6.90;;;5.33;;
9214;SDS011;4642;51.364;6.788;2024-01-15T10:40:50;5.77;;;4.80;;
9214;SDS011;4642;51.364;6.788;2024-01-15T10:43:17;5.53;;;4.50;;
9214;SDS011;4642;51.364;6.788;2024-01-15T10:45:46;6.60;;;5.03;;
9214;SDS011;4642;51.364;6.788;2024-01-15T10:48:12;5.07;;;4.57;;
9214;SDS011;4642;51.364;6.788;2024-01-15T10:50:38;6.70;;;5.03;;
9214;SDS011;4642;51.364;6.788;2024-01-15T10:53:04;5.43;;;4.93;;
9214;SDS011;4642;51.364;6.788;2024-01-15T10:55:31;5.80;;;4.80;;
9214;SDS011;4642;51.364;6.788;2024-01-15T10:57:58;7.60;;;5.23;;
9214;SDS011;4642;51.364;6.788;2024-01-15T11:00:24;8.17;;;5.13;;
9214;SDS011;4642;51.364;6.788;2024-01-15T11:02:51;6.20;;;5.17;;
9214;SDS011;4642;51.364;6.788;2024-01-15T11:05:20;6.03;;;4.97;;
9214;SDS011;4642;51.364;6.788;2024-01-15T11:07:47;6.50;;;4.87;;
9214;SDS011;4642;51.364;6.788;2024-01-15T11:13:15;6.70;;;4.70;;
9214;SDS011;4642;51.364;6.788;2024-01-15T11:15:58;7.77;;;4.67;;
9214;SDS011;4642;51.364;6.788;2024-01-15T11:18:26;7.50;;;5.30;;
9214;SDS011;4642;51.364;6.788;2024-01-15T11:23:43;5.43;;;4.50;;
9214;SDS011;4642;51.364;6.788;2024-01-15T11:26:27;8.27;;;4.43;;
9214;SDS011;4642;51.364;6.788;2024-01-15T11:28:55;5.13;;;4.13;;
9214;SDS011;4642;51.364;6.788;2024-01-15T11:34:13;7.43;;;3.93;;
9214;SDS011;4642;51.364;6.788;2024-01-15T11:39:39;5.40;;;3.77;;
9214;SDS011;4642;51.364;6.788;2024-01-15T11:42:07;6.90;;;3.40;;
9214;SDS011;4642;51.364;6.788;2024-01-15T11:44:34;7.60;;;3.10;;
9214;SDS011;4642;51.364;6.788;2024-01-15T11:47:03;10.53;;;3.37;;
9214;SDS011;4642;51.364;6.788;2024-01-15T11:52:37;9.83;;;2.77;;
9214;SDS011;4642;51.364;6.788;2024-01-15T11:55:10;6.17;;;2.33;;
9214;SDS011;4642;51.364;6.788;2024-01-15T12:00:10;4.60;;;2.57;;
9214;SDS011;4642;51.364;6.788;2024-01-15T12:02:37;6.43;;;2.57;;
9214;SDS011;4642;51.364;6.788;2024-01-15T12:05:04;2.83;;;1.90;;
9214;SDS011;4642;51.364;6.788;2024-01-15T12:07:30;8.10;;;3.00;;
9214;SDS011;4642;51.364;6.788;2024-01-15T12:09:56;1.87;;;1.77;;
9214;SDS011;4642;51.364;6.788;2024-01-15T12:12:24;3.70;;;2.50;;
9214;SDS011;4642;51.364;6.788;2024-01-15T12:15:02;7.70;;;2.70;;
9214;SDS011;4642;51.364;6.788;2024-01-15T12:17:28;6.20;;;2.53;;
9214;SDS011;4642;51.364;6.788;2024-01-15T12:19:54;5.30;;;2.33;;
9214;SDS011;4642;51.364;6.788;2024-01-15T12:22:21;4.73;;;2.40;;
9214;SDS011;4642;51.364;6.788;2024-01-15T12:24:46;4.87;;;2.30;;
9214;SDS011;4642;51.364;6.788;2024-01-15T12:27:12;10.87;;;2.30;;
9214;SDS011;4642;51.364;6.788;2024-01-15T12:29:38;6.53;;;3.00;;
9214;SDS011;4642;51.364;6.788;2024-01-15T12:32:04;6.33;;;2.77;;
9214;SDS011;4642;51.364;6.788;2024-01-15T12:34:30;4.97;;;2.63;;
9214;SDS011;4642;51.364;6.788;2024-01-15T12:36:57;4.93;;;3.00;;
9214;SDS011;4642;51.364;6.788;2024-01-15T12:39:24;5.83;;;2.70;;
9214;SDS011;4642;51.364;6.788;2024-01-15T12:41:49;6.37;;;2.80;;
9214;SDS011;4642;51.364;6.788;2024-01-15T12:44:15;6.27;;;2.57;;
9214;SDS011;4642;51.364;6.788;2024-01-15T12:46:41;5.13;;;2.77;;
9214;SDS011;4642;51.364;6.788;2024-01-15T12:49:07;7.33;;;3.10;;
9214;SDS011;4642;51.364;6.788;2024-01-15T12:51:34;3.97;;;2.33;;
9214;SDS011;4642;51.364;6.788;2024-01-15T12:53:59;5.03;;;3.10;;
9214;SDS011;4642;51.364;6.788;2024-01-15T12:56:25;6.43;;;3.23;;
9214;SDS011;4642;51.364;6.788;2024-01-15T12:58:50;4.70;;;3.40;;
9214;SDS011;4642;51.364;6.788;2024-01-15T13:01:16;5.13;;;2.73;;
9214;SDS011;4642;51.364;6.788;2024-01-15T13:03:42;5.17;;;2.93;;
9214;SDS011;4642;51.364;6.788;2024-01-15T13:06:08;6.57;;;3.20;;
9214;SDS011;4642;51.364;6.788;2024-01-15T13:08:33;8.97;;;3.23;;
9214;SDS011;4642;51.364;6.788;2024-01-15T13:10:59;6.90;;;3.60;;
9214;SDS011;4642;51.364;6.788;2024-01-15T13:13:24;7.10;;;3.40;;
9214;SDS011;4642;51.364;6.788;2024-01-15T13:15:50;6.00;;;3.60;;
9214;SDS011;4642;51.364;6.788;2024-01-15T13:18:15;6.53;;;3.93;;
9214;SDS011;4642;51.364;6.788;2024-01-15T13:20:41;9.77;;;3.67;;
9214;SDS011;4642;51.364;6.788;2024-01-15T13:23:06;4.43;;;3.50;;
9214;SDS011;4642;51.364;6.788;2024-01-15T13:25:32;7.43;;;3.53;;
9214;SDS011;4642;51.364;6.788;2024-01-15T13:28:00;6.67;;;3.63;;
9214;SDS011;4642;51.364;6.788;2024-01-15T13:30:27;5.07;;;3.47;;
9214;SDS011;4642;51.364;6.788;2024-01-15T13:32:53;9.57;;;4.17;;
9214;SDS011;4642;51.364;6.788;2024-01-15T13:35:19;9.40;;;4.60;;
9214;SDS011;4642;51.364;6.788;2024-01-15T13:37:44;6.53;;;4.23;;
9214;SDS011;4642;51.364;6.788;2024-01-15T13:40:10;6.03;;;3.50;;
9214;SDS011;4642;51.364;6.788;2024-01-15T13:42:45;6.17;;;4.13;;
9214;SDS011;4642;51.364;6.788;2024-01-15T13:45:10;7.70;;;4.10;;
9214;SDS011;4642;51.364;6.788;2024-01-15T13:47:39;6.20;;;3.77;;
9214;SDS011;4642;51.364;6.788;2024-01-15T13:50:05;9.43;;;4.50;;
9214;SDS011;4642;51.364;6.788;2024-01-15T13:52:32;6.47;;;2.87;;
9214;SDS011;4642;51.364;6.788;2024-01-15T13:54:57;4.37;;;2.67;;
9214;SDS011;4642;51.364;6.788;2024-01-15T13:57:23;4.67;;;2.77;;
9214;SDS011;4642;51.364;6.788;2024-01-15T13:59:48;5.57;;;2.73;;
9214;SDS011;4642;51.364;6.788;2024-01-15T14:02:14;6.07;;;2.57;;
9214;SDS011;4642;51.364;6.788;2024-01-15T14:04:40;4.03;;;2.97;;
9214;SDS011;4642;51.364;6.788;2024-01-15T14:07:06;5.37;;;3.00;;
9214;SDS011;4642;51.364;6.788;2024-01-15T14:09:32;4.30;;;2.67;;
9214;SDS011;4642;51.364;6.788;2024-01-15T14:11:57;3.70;;;2.30;;
9214;SDS011;4642;51.364;6.788;2024-01-15T14:14:23;5.33;;;2.53;;
9214;SDS011;4642;51.364;6.788;2024-01-15T14:16:49;3.57;;;2.13;;
9214;SDS011;4642;51.364;6.788;2024-01-15T14:19:15;5.53;;;2.80;;
9214;SDS011;4642;51.364;6.788;2024-01-15T14:21:40;7.73;;;2.70;;
9214;SDS011;4642;51.364;6.788;2024-01-15T14:24:06;5.80;;;2.30;;
9214;SDS011;4642;51.364;6.788;2024-01-15T14:26:31;2.67;;;1.90;;
9214;SDS011;4642;51.364;6.788;2024-01-15T14:28:57;3.23;;;1.60;;
9214;SDS011;4642;51.364;6.788;2024-01-15T14:31:23;3.97;;;2.10;;
9214;SDS011;4642;51.364;6.788;2024-01-15T14:33:51;6.27;;;2.03;;
9214;SDS011;4642;51.364;6.788;2024-01-15T14:36:17;3.07;;;1.90;;
9214;SDS011;4642;51.364;6.788;2024-01-15T14:38:42;3.83;;;2.40;;
9214;SDS011;4642;51.364;6.788;2024-01-15T14:41:08;6.13;;;2.10;;
9214;SDS011;4642;51.364;6.788;2024-01-15T14:43:33;4.73;;;2.33;;
9214;SDS011;4642;51.364;6.788;2024-01-15T14:45:59;5.03;;;2.63;;
9214;SDS011;4642;51.364;6.788;2024-01-15T14:48:25;10.17;;;2.97;;
9214;SDS011;4642;51.364;6.788;2024-01-15T14:50:50;10.37;;;3.90;;
9214;SDS011;4642;51.364;6.788;2024-01-15T14:53:16;6.47;;;2.60;;
9214;SDS011;4642;51.364;6.788;2024-01-15T14:55:42;5.23;;;2.80;;
9214;SDS011;4642;51.364;6.788;2024-01-15T14:58:08;4.80;;;2.40;;
9214;SDS011;4642;51.364;6.788;2024-01-15T15:00:33;7.50;;;2.60;;
9214;SDS011;4642;51.364;6.788;2024-01-15T15:02:59;4.60;;;2.07;;
9214;SDS011;4642;51.364;6.788;2024-01-15T15:05:25;3.10;;;1.83;;
9214;SDS011;4642;51.364;6.788;2024-01-15T15:07:50;5.87;;;1.80;;
9214;SDS011;4642;51.364;6.788;2024-01-15T15:10:17;5.30;;;1.90;;
9214;SDS011;4642;51.364;6.788;2024-01-15T15:12:42;9.67;;;2.67;;